sensor_id;sensor_type;location;lat;lon;timestamp;P1;durP1;ratioP1;P2;durP2;ratioP2
33862;SDS011;20158;51.436;-2.742;2023-05-07T00:00:46;10.32;;;4.85;;
33862;SDS011;20158;51.436;-2.742;2023-05-07T00:03:13;8.63;;;4.35;;
33862;SDS011;20158;51.436;-2.742;2023-05-07T00:05:39;8.70;;;4.80;;
33862;SDS011;20158;51.436;-2.742;2023-05-07T00:08:05;8.52;;;5.40;;
33862;SDS011;20158;51.436;-2.742;2023-05-07T00:10:31;8.82;;;5.13;;
33862;SDS011;20158;51.436;-2.742;2023-05-07T00:12:57;11.68;;;5.13;;
33862;SDS011;20158;51.436;-2.742;2023-05-07T00:15:22;8.60;;;5.10;;
33862;SDS011;20158;51.436;-2.742;2023-05-07T00:17:48;10.30;;;5.93;;
33862;SDS011;20158;51.436;-2.742;2023-05-07T00:20:14;8.85;;;4.90;;
33862;SDS011;20158;51.436;-2.742;2023-05-07T00:22:40;11.45;;;5.78;;
33862;SDS011;20158;51.436;-2.742;2023-05-07T00:25:06;9.48;;;5.90;;
33862;SDS011;20158;51.436;-2.742;2023-05-07T00:27:32;8.55;;;5.15;;
33862;SDS011;20158;51.436;-2.742;2023-05-07T00:29:58;9.45;;;5.60;;
33862;SDS011;20158;51.436;-2.742;2023-05-07T00:32:24;6.95;;;4.50;;
33862;SDS011;20158;51.436;-2.742;2023-05-07T00:34:50;11.75;;;5.80;;
33862;SDS011;20158;51.436;-2.742;2023-05-07T00:37:16;11.10;;;5.80;;
33862;SDS011;20158;51.436;-2.742;2023-05-07T00:39:42;6.00;;;4.88;;
33862;SDS011;20158;51.436;-2.742;2023-05-07T00:42:08;10.25;;;6.18;;
33862;SDS011;20158;51.436;-2.742;2023-05-07T00:44:34;9.98;;;5.80;;
33862;SDS011;20158;51.436;-2.742;2023-05-07T00:47:01;7.53;;;5.63;;
33862;SDS011;20158;51.436;-2.742;2023-05-07T00:49:35;10.98;;;5.82;;
33862;SDS011;20158;51.436;-2.742;2023-05-07T00:52:11;8.75;;;6.15;;
33862;SDS011;20158;51.436;-2.742;2023-05-07T00:54:40;9.65;;;6.10;;
33862;SDS011;20158;51.436;-2.742;2023-05-07T00:57:06;9.80;;;6.47;;
33862;SDS011;20158;51.436;-2.742;2023-05-07T00:59:34;14.13;;;6.25;;
33862;SDS011;20158;51.436;-2.742;2023-05-07T01:02:00;10.32;;;6.70;;
33862;SDS011;20158;51.436;-2.742;2023-05-07T01:04:27;12.85;;;7.18;;
33862;SDS011;20158;51.436;-2.742;2023-05-07T01:06:54;13.20;;;7.75;;
33862;SDS011;20158;51.436;-2.742;2023-05-07T01:09:22;13.35;;;7.93;;
33862;SDS011;20158;51.436;-2.742;2023-05-07T01:11:49;8.90;;;6.65;;
33862;SDS011;20158;51.436;-2.742;2023-05-07T01:14:17;12.18;;;6.80;;
33862;SDS011;20158;51.436;-2.742;2023-05-07T01:16:43;11.68;;;7.88;;
33862;SDS011;20158;51.436;-2.742;2023-05-07T01:19:11;9.90;;;7.85;;
33862;SDS011;20158;51.436;-2.742;2023-05-07T01:21:39;11.23;;;7.70;;
33862;SDS011;20158;51.436;-2.742;2023-05-07T01:24:12;11.35;;;8.13;;
33862;SDS011;20158;51.436;-2.742;2023-05-07T01:26:38;12.60;;;7.40;;
33862;SDS011;20158;51.436;-2.742;2023-05-07T01:29:05;12.30;;;6.32;;
33862;SDS011;20158;51.436;-2.742;2023-05-07T01:31:32;10.75;;;7.93;;
33862;SDS011;20158;51.436;-2.742;2023-05-07T01:34:00;9.00;;;7.30;;
33862;SDS011;20158;51.436;-2.742;2023-05-07T01:36:27;14.15;;;7.60;;
33862;SDS011;20158;51.436;-2.742;2023-05-07T01:38:55;10.70;;;6.90;;
33862;SDS011;20158;51.436;-2.742;2023-05-07T01:41:23;12.82;;;7.72;;
33862;SDS011;20158;51.436;-2.742;2023-05-07T01:43:50;10.52;;;7.13;;
33862;SDS011;20158;51.436;-2.742;2023-05-07T01:46:17;10.75;;;6.72;;
33862;SDS011;20158;51.436;-2.742;2023-05-07T01:48:44;9.05;;;6.57;;
33862;SDS011;20158;51.436;-2.742;2023-05-07T01:51:11;11.25;;;8.05;;
33862;SDS011;20158;51.436;-2.742;2023-05-07T01:53:38;10.88;;;7.15;;
33862;SDS011;20158;51.436;-2.742;2023-05-07T01:56:06;10.02;;;6.93;;
33862;SDS011;20158;51.436;-2.742;2023-05-07T01:58:33;12.32;;;7.80;;
33862;SDS011;20158;51.436;-2.742;2023-05-07T02:00:59;10.90;;;6.45;;
33862;SDS011;20158;51.436;-2.742;2023-05-07T02:03:25;9.65;;;7.03;;
33862;SDS011;20158;51.436;-2.742;2023-05-07T02:05:59;12.05;;;7.20;;
33862;SDS011;20158;51.436;-2.742;2023-05-07T02:08:30;11.70;;;6.60;;
33862;SDS011;20158;51.436;-2.742;2023-05-07T02:10:57;11.93;;;7.07;;
33862;SDS011;20158;51.436;-2.742;2023-05-07T02:13:25;8.65;;;6.45;;
33862;SDS011;20158;51.436;-2.742;2023-05-07T02:15:52;11.15;;;6.82;;
33862;SDS011;20158;51.436;-2.742;2023-05-07T02:18:19;9.20;;;6.40;;
33862;SDS011;20158;51.436;-2.742;2023-05-07T02:20:45;9.90;;;6.75;;
33862;SDS011;20158;51.436;-2.742;2023-05-07T02:23:11;9.10;;;6.68;;
33862;SDS011;20158;51.436;-2.742;2023-05-07T02:25:37;9.57;;;6.32;;
33862;SDS011;20158;51.436;-2.742;2023-05-07T02:28:03;9.20;;;6.22;;
33862;SDS011;20158;51.436;-2.742;2023-05-07T02:30:52;10.40;;;7.10;;
33862;SDS011;20158;51.436;-2.742;2023-05-07T02:33:19;11.50;;;7.32;;
33862;SDS011;20158;51.436;-2.742;2023-05-07T02:35:45;11.85;;;7.45;;
33862;SDS011;20158;51.436;-2.742;2023-05-07T02:38:13;11.73;;;7.75;;
33862;SDS011;20158;51.436;-2.742;2023-05-07T02:40:40;9.82;;;7.53;;
33862;SDS011;20158;51.436;-2.742;2023-05-07T02:43:08;12.48;;;8.15;;
33862;SDS011;20158;51.436;-2.742;2023-05-07T02:45:34;12.93;;;8.95;;
33862;SDS011;20158;51.436;-2.742;2023-05-07T02:48:03;16.50;;;9.90;;
33862;SDS011;20158;51.436;-2.742;2023-05-07T02:50:31;11.55;;;8.95;;
33862;SDS011;20158;51.436;-2.742;2023-05-07T02:52:58;15.25;;;11.18;;
33862;SDS011;20158;51.436;-2.742;2023-05-07T02:55:23;14.77;;;11.27;;
33862;SDS011;20158;51.436;-2.742;2023-05-07T02:57:49;14.05;;;12.52;;
33862;SDS011;20158;51.436;-2.742;2023-05-07T03:00:16;17.65;;;12.50;;
33862;SDS011;20158;51.436;-2.742;2023-05-07T03:02:54;16.52;;;13.77;;
33862;SDS011;20158;51.436;-2.742;2023-05-07T03:05:21;18.83;;;13.68;;
33862;SDS011;20158;51.436;-2.742;2023-05-07T03:07:47;19.00;;;14.77;;
33862;SDS011;20158;51.436;-2.742;2023-05-07T03:10:14;20.90;;;15.43;;
33862;SDS011;20158;51.436;-2.742;2023-05-07T03:12:40;26.27;;;18.92;;
33862;SDS011;20158;51.436;-2.742;2023-05-07T03:15:07;25.67;;;17.15;;
33862;SDS011;20158;51.436;-2.742;2023-05-07T03:17:33;24.17;;;17.63;;
33862;SDS011;20158;51.436;-2.742;2023-05-07T03:19:59;21.77;;;17.25;;
33862;SDS011;20158;51.436;-2.742;2023-05-07T03:22:25;25.02;;;19.88;;
33862;SDS011;20158;51.436;-2.742;2023-05-07T03:24:51;24.83;;;19.67;;
33862;SDS011;20158;51.436;-2.742;2023-05-07T03:27:17;24.25;;;19.38;;
33862;SDS011;20158;51.436;-2.742;2023-05-07T03:29:44;26.40;;;19.75;;
33862;SDS011;20158;51.436;-2.742;2023-05-07T03:32:10;26.83;;;20.58;;
33862;SDS011;20158;51.436;-2.742;2023-05-07T03:34:36;25.88;;;18.92;;
33862;SDS011;20158;51.436;-2.742;2023-05-07T03:37:02;24.33;;;19.90;;
33862;SDS011;20158;51.436;-2.742;2023-05-07T03:39:28;24.27;;;20.05;;
33862;SDS011;20158;51.436;-2.742;2023-05-07T03:41:54;27.23;;;20.20;;
33862;SDS011;20158;51.436;-2.742;2023-05-07T03:44:20;25.52;;;18.80;;
33862;SDS011;20158;51.436;-2.742;2023-05-07T03:46:46;20.88;;;17.63;;
33862;SDS011;20158;51.436;-2.742;2023-05-07T03:49:12;22.50;;;17.80;;
33862;SDS011;20158;51.436;-2.742;2023-05-07T03:51:38;20.30;;;15.18;;
33862;SDS011;20158;51.436;-2.742;2023-05-07T03:54:07;21.13;;;16.65;;
33862;SDS011;20158;51.436;-2.742;2023-05-07T03:56:33;19.83;;;15.48;;
33862;SDS011;20158;51.436;-2.742;2023-05-07T03:58:59;17.15;;;14.80;;
33862;SDS011;20158;51.436;-2.742;2023-05-07T04:01:26;18.42;;;13.48;;
33862;SDS011;20158;51.436;-2.742;2023-05-07T04:03:52;17.95;;;14.00;;
33862;SDS011;20158;51.436;-2.742;2023-05-07T04:06:18;20.20;;;14.20;;
33862;SDS011;20158;51.436;-2.742;2023-05-07T04:08:47;15.23;;;12.52;;
33862;SDS011;20158;51.436;-2.742;2023-05-07T04:11:13;16.35;;;11.82;;
33862;SDS011;20158;51.436;-2.742;2023-05-07T04:13:39;15.60;;;12.77;;
33862;SDS011;20158;51.436;-2.742;2023-05-07T04:16:07;13.00;;;11.20;;
33862;SDS011;20158;51.436;-2.742;2023-05-07T04:18:35;14.60;;;10.60;;
33862;SDS011;20158;51.436;-2.742;2023-05-07T04:21:01;14.88;;;11.00;;
33862;SDS011;20158;51.436;-2.742;2023-05-07T04:23:27;15.05;;;10.93;;
33862;SDS011;20158;51.436;-2.742;2023-05-07T04:25:54;12.55;;;10.60;;
33862;SDS011;20158;51.436;-2.742;2023-05-07T04:28:29;14.95;;;10.77;;
33862;SDS011;20158;51.436;-2.742;2023-05-07T04:30:55;12.52;;;10.10;;
33862;SDS011;20158;51.436;-2.742;2023-05-07T04:33:21;14.93;;;11.07;;
33862;SDS011;20158;51.436;-2.742;2023-05-07T04:35:49;12.23;;;9.82;;
33862;SDS011;20158;51.436;-2.742;2023-05-07T04:38:15;13.88;;;10.23;;
33862;SDS011;20158;51.436;-2.742;2023-05-07T04:40:42;13.65;;;9.75;;
33862;SDS011;20158;51.436;-2.742;2023-05-07T04:43:10;15.30;;;10.18;;
33862;SDS011;20158;51.436;-2.742;2023-05-07T04:45:43;13.23;;;11.05;;
33862;SDS011;20158;51.436;-2.742;2023-05-07T04:48:09;13.40;;;11.88;;
33862;SDS011;20158;51.436;-2.742;2023-05-07T04:50:38;18.67;;;12.10;;
33862;SDS011;20158;51.436;-2.742;2023-05-07T04:53:04;12.35;;;9.60;;
33862;SDS011;20158;51.436;-2.742;2023-05-07T04:55:30;14.80;;;12.43;;
33862;SDS011;20158;51.436;-2.742;2023-05-07T04:57:56;16.75;;;12.20;;
33862;SDS011;20158;51.436;-2.742;2023-05-07T05:00:22;15.95;;;12.43;;
33862;SDS011;20158;51.436;-2.742;2023-05-07T05:02:50;18.17;;;13.00;;
33862;SDS011;20158;51.436;-2.742;2023-05-07T05:05:19;15.10;;;12.05;;
33862;SDS011;20158;51.436;-2.742;2023-05-07T05:07:46;16.00;;;12.25;;
33862;SDS011;20158;51.436;-2.742;2023-05-07T05:10:12;15.50;;;12.73;;
33862;SDS011;20158;51.436;-2.742;2023-05-07T05:12:40;15.60;;;12.00;;
33862;SDS011;20158;51.436;-2.742;2023-05-07T05:15:06;19.63;;;13.30;;
33862;SDS011;20158;51.436;-2.742;2023-05-07T05:17:34;18.90;;;13.88;;
33862;SDS011;20158;51.436;-2.742;2023-05-07T05:20:03;20.27;;;13.32;;
33862;SDS011;20158;51.436;-2.742;2023-05-07T05:22:29;18.55;;;14.13;;
33862;SDS011;20158;51.436;-2.742;2023-05-07T05:24:57;17.95;;;13.98;;
33862;SDS011;20158;51.436;-2.742;2023-05-07T05:27:23;18.70;;;14.10;;
33862;SDS011;20158;51.436;-2.742;2023-05-07T05:29:50;17.08;;;13.93;;
33862;SDS011;20158;51.436;-2.742;2023-05-07T05:32:16;21.35;;;15.13;;
33862;SDS011;20158;51.436;-2.742;2023-05-07T05:34:42;19.67;;;16.05;;
33862;SDS011;20158;51.436;-2.742;2023-05-07T05:37:08;18.80;;;15.05;;
33862;SDS011;20158;51.436;-2.742;2023-05-07T05:39:34;20.15;;;15.05;;
33862;SDS011;20158;51.436;-2.742;2023-05-07T05:42:02;18.10;;;15.48;;
33862;SDS011;20158;51.436;-2.742;2023-05-07T05:44:28;23.50;;;17.42;;
33862;SDS011;20158;51.436;-2.742;2023-05-07T05:46:53;21.35;;;16.77;;
33862;SDS011;20158;51.436;-2.742;2023-05-07T05:49:21;23.35;;;17.58;;
33862;SDS011;20158;51.436;-2.742;2023-05-07T05:51:47;18.23;;;14.57;;
33862;SDS011;20158;51.436;-2.742;2023-05-07T05:54:14;15.85;;;12.18;;
33862;SDS011;20158;51.436;-2.742;2023-05-07T05:56:41;16.27;;;11.63;;
33862;SDS011;20158;51.436;-2.742;2023-05-07T05:59:07;23.10;;;12.60;;
33862;SDS011;20158;51.436;-2.742;2023-05-07T06:01:33;21.75;;;11.75;;
33862;SDS011;20158;51.436;-2.742;2023-05-07T06:04:01;14.93;;;10.73;;
33862;SDS011;20158;51.436;-2.742;2023-05-07T06:06:28;16.52;;;12.20;;
33862;SDS011;20158;51.436;-2.742;2023-05-07T06:08:54;13.88;;;11.35;;
33862;SDS011;20158;51.436;-2.742;2023-05-07T06:11:26;20.47;;;12.90;;
33862;SDS011;20158;51.436;-2.742;2023-05-07T06:13:52;17.58;;;11.43;;
33862;SDS011;20158;51.436;-2.742;2023-05-07T06:16:18;15.63;;;10.65;;
33862;SDS011;20158;51.436;-2.742;2023-05-07T06:18:44;15.75;;;11.65;;
33862;SDS011;20158;51.436;-2.742;2023-05-07T06:21:13;14.50;;;11.80;;
33862;SDS011;20158;51.436;-2.742;2023-05-07T06:23:39;16.98;;;11.82;;
33862;SDS011;20158;51.436;-2.742;2023-05-07T06:26:06;14.68;;;10.52;;
33862;SDS011;20158;51.436;-2.742;2023-05-07T06:28:39;11.70;;;10.05;;
33862;SDS011;20158;51.436;-2.742;2023-05-07T06:31:13;13.45;;;10.32;;
33862;SDS011;20158;51.436;-2.742;2023-05-07T06:33:41;13.38;;;10.18;;
33862;SDS011;20158;51.436;-2.742;2023-05-07T06:36:08;11.05;;;9.48;;
33862;SDS011;20158;51.436;-2.742;2023-05-07T06:38:35;11.63;;;8.68;;
33862;SDS011;20158;51.436;-2.742;2023-05-07T06:41:01;10.55;;;8.15;;
33862;SDS011;20158;51.436;-2.742;2023-05-07T06:43:27;10.98;;;8.73;;
33862;SDS011;20158;51.436;-2.742;2023-05-07T06:45:55;11.90;;;9.93;;
33862;SDS011;20158;51.436;-2.742;2023-05-07T06:48:21;10.18;;;8.63;;
33862;SDS011;20158;51.436;-2.742;2023-05-07T06:50:54;11.30;;;8.85;;
33862;SDS011;20158;51.436;-2.742;2023-05-07T06:53:23;12.35;;;8.95;;
33862;SDS011;20158;51.436;-2.742;2023-05-07T06:55:50;12.57;;;8.82;;
33862;SDS011;20158;51.436;-2.742;2023-05-07T06:58:18;14.55;;;10.60;;
33862;SDS011;20158;51.436;-2.742;2023-05-07T07:00:44;10.23;;;9.15;;
33862;SDS011;20158;51.436;-2.742;2023-05-07T07:03:11;11.43;;;9.30;;
33862;SDS011;20158;51.436;-2.742;2023-05-07T07:05:40;15.02;;;9.48;;
33862;SDS011;20158;51.436;-2.742;2023-05-07T07:08:06;15.00;;;9.82;;
33862;SDS011;20158;51.436;-2.742;2023-05-07T07:10:33;11.75;;;8.75;;
33862;SDS011;20158;51.436;-2.742;2023-05-07T07:13:00;9.98;;;8.60;;
33862;SDS011;20158;51.436;-2.742;2023-05-07T07:15:28;8.93;;;7.25;;
33862;SDS011;20158;51.436;-2.742;2023-05-07T07:17:55;8.15;;;6.75;;
33862;SDS011;20158;51.436;-2.742;2023-05-07T07:20:22;10.10;;;6.75;;
33862;SDS011;20158;51.436;-2.742;2023-05-07T07:22:48;7.28;;;6.32;;
33862;SDS011;20158;51.436;-2.742;2023-05-07T07:25:15;7.57;;;6.50;;
33862;SDS011;20158;51.436;-2.742;2023-05-07T07:27:42;7.22;;;5.80;;
33862;SDS011;20158;51.436;-2.742;2023-05-07T07:30:08;6.32;;;4.82;;
33862;SDS011;20158;51.436;-2.742;2023-05-07T07:32:37;8.70;;;5.75;;
33862;SDS011;20158;51.436;-2.742;2023-05-07T07:35:03;7.05;;;5.70;;
33862;SDS011;20158;51.436;-2.742;2023-05-07T07:37:31;7.60;;;5.20;;
33862;SDS011;20158;51.436;-2.742;2023-05-07T07:39:57;5.70;;;4.35;;
33862;SDS011;20158;51.436;-2.742;2023-05-07T07:42:23;5.78;;;4.70;;
33862;SDS011;20158;51.436;-2.742;2023-05-07T07:44:49;5.88;;;4.38;;
33862;SDS011;20158;51.436;-2.742;2023-05-07T07:47:19;6.47;;;4.05;;
33862;SDS011;20158;51.436;-2.742;2023-05-07T07:49:47;5.95;;;3.85;;
33862;SDS011;20158;51.436;-2.742;2023-05-07T07:52:13;5.68;;;3.38;;
33862;SDS011;20158;51.436;-2.742;2023-05-07T07:54:40;7.90;;;3.88;;
33862;SDS011;20158;51.436;-2.742;2023-05-07T07:57:06;6.68;;;3.60;;
33862;SDS011;20158;51.436;-2.742;2023-05-07T07:59:33;3.25;;;2.90;;
33862;SDS011;20158;51.436;-2.742;2023-05-07T08:01:59;4.65;;;2.83;;
33862;SDS011;20158;51.436;-2.742;2023-05-07T08:04:27;3.03;;;2.50;;
33862;SDS011;20158;51.436;-2.742;2023-05-07T08:06:55;3.90;;;2.97;;
33862;SDS011;20158;51.436;-2.742;2023-05-07T08:09:22;5.22;;;3.25;;
33862;SDS011;20158;51.436;-2.742;2023-05-07T08:11:49;4.55;;;2.90;;
33862;SDS011;20158;51.436;-2.742;2023-05-07T08:14:15;3.85;;;2.38;;
33862;SDS011;20158;51.436;-2.742;2023-05-07T08:16:44;6.50;;;3.05;;
33862;SDS011;20158;51.436;-2.742;2023-05-07T08:19:10;3.35;;;2.30;;
33862;SDS011;20158;51.436;-2.742;2023-05-07T08:21:38;4.43;;;2.88;;
33862;SDS011;20158;51.436;-2.742;2023-05-07T08:24:05;4.40;;;2.33;;
33862;SDS011;20158;51.436;-2.742;2023-05-07T08:26:31;2.78;;;2.10;;
33862;SDS011;20158;51.436;-2.742;2023-05-07T08:28:57;4.47;;;2.50;;
33862;SDS011;20158;51.436;-2.742;2023-05-07T08:31:24;2.85;;;2.33;;
33862;SDS011;20158;51.436;-2.742;2023-05-07T08:33:50;5.25;;;2.92;;
33862;SDS011;20158;51.436;-2.742;2023-05-07T08:36:16;6.18;;;2.65;;
33862;SDS011;20158;51.436;-2.742;2023-05-07T08:38:44;3.65;;;2.28;;
33862;SDS011;20158;51.436;-2.742;2023-05-07T08:41:11;4.50;;;2.00;;
33862;SDS011;20158;51.436;-2.742;2023-05-07T08:43:40;2.88;;;1.90;;
33862;SDS011;20158;51.436;-2.742;2023-05-07T08:46:08;5.38;;;2.83;;
33862;SDS011;20158;51.436;-2.742;2023-05-07T08:48:39;2.47;;;1.70;;
33862;SDS011;20158;51.436;-2.742;2023-05-07T08:51:15;3.92;;;2.30;;
33862;SDS011;20158;51.436;-2.742;2023-05-07T08:53:44;7.28;;;4.00;;
33862;SDS011;20158;51.436;-2.742;2023-05-07T08:56:14;6.05;;;2.83;;
33862;SDS011;20158;51.436;-2.742;2023-05-07T08:58:44;7.32;;;3.42;;
33862;SDS011;20158;51.436;-2.742;2023-05-07T09:01:14;4.75;;;3.63;;
33862;SDS011;20158;51.436;-2.742;2023-05-07T09:03:45;5.53;;;3.00;;
33862;SDS011;20158;51.436;-2.742;2023-05-07T09:06:12;5.43;;;3.28;;
33862;SDS011;20158;51.436;-2.742;2023-05-07T09:08:40;6.85;;;3.55;;
33862;SDS011;20158;51.436;-2.742;2023-05-07T09:11:07;5.28;;;3.67;;
33862;SDS011;20158;51.436;-2.742;2023-05-07T09:13:33;5.53;;;3.28;;
33862;SDS011;20158;51.436;-2.742;2023-05-07T09:16:09;5.00;;;3.33;;
33862;SDS011;20158;51.436;-2.742;2023-05-07T09:18:43;6.03;;;4.03;;
33862;SDS011;20158;51.436;-2.742;2023-05-07T09:21:15;6.13;;;4.07;;
33862;SDS011;20158;51.436;-2.742;2023-05-07T09:23:42;7.07;;;4.20;;
33862;SDS011;20158;51.436;-2.742;2023-05-07T09:26:08;5.60;;;3.88;;
33862;SDS011;20158;51.436;-2.742;2023-05-07T09:28:38;4.95;;;3.88;;
33862;SDS011;20158;51.436;-2.742;2023-05-07T09:31:06;6.13;;;3.75;;
33862;SDS011;20158;51.436;-2.742;2023-05-07T09:33:33;4.93;;;3.63;;
33862;SDS011;20158;51.436;-2.742;2023-05-07T09:36:11;4.35;;;3.70;;
33862;SDS011;20158;51.436;-2.742;2023-05-07T09:38:39;5.10;;;4.15;;
33862;SDS011;20158;51.436;-2.742;2023-05-07T09:43:39;4.22;;;3.20;;
33862;SDS011;20158;51.436;-2.742;2023-05-07T09:46:14;4.95;;;3.50;;
33862;SDS011;20158;51.436;-2.742;2023-05-07T09:48:48;3.95;;;3.17;;
33862;SDS011;20158;51.436;-2.742;2023-05-07T09:51:28;5.70;;;3.72;;
33862;SDS011;20158;51.436;-2.742;2023-05-07T09:53:57;5.80;;;2.97;;
33862;SDS011;20158;51.436;-2.742;2023-05-07T09:56:29;6.20;;;3.70;;
33862;SDS011;20158;51.436;-2.742;2023-05-07T09:58:58;4.78;;;3.42;;
33862;SDS011;20158;51.436;-2.742;2023-05-07T10:01:26;3.95;;;2.97;;
33862;SDS011;20158;51.436;-2.742;2023-05-07T10:03:53;4.22;;;2.90;;
33862;SDS011;20158;51.436;-2.742;2023-05-07T10:06:20;3.95;;;2.70;;
33862;SDS011;20158;51.436;-2.742;2023-05-07T10:08:46;4.88;;;3.53;;
33862;SDS011;20158;51.436;-2.742;2023-05-07T10:11:14;4.53;;;3.80;;
33862;SDS011;20158;51.436;-2.742;2023-05-07T10:13:42;3.80;;;2.72;;
33862;SDS011;20158;51.436;-2.742;2023-05-07T10:16:10;4.35;;;3.13;;
33862;SDS011;20158;51.436;-2.742;2023-05-07T10:18:41;4.83;;;3.00;;
33862;SDS011;20158;51.436;-2.742;2023-05-07T10:23:48;3.22;;;2.92;;
33862;SDS011;20158;51.436;-2.742;2023-05-07T10:26:20;6.05;;;2.97;;
33862;SDS011;20158;51.436;-2.742;2023-05-07T10:28:49;3.25;;;2.90;;
33862;SDS011;20158;51.436;-2.742;2023-05-07T10:34:15;3.47;;;2.70;;
33862;SDS011;20158;51.436;-2.742;2023-05-07T10:36:44;3.28;;;2.90;;
33862;SDS011;20158;51.436;-2.742;2023-05-07T10:39:11;4.30;;;3.00;;
33862;SDS011;20158;51.436;-2.742;2023-05-07T10:41:39;4.35;;;3.35;;
33862;SDS011;20158;51.436;-2.742;2023-05-07T10:44:05;4.32;;;2.97;;
33862;SDS011;20158;51.436;-2.742;2023-05-07T10:46:34;3.08;;;2.78;;
33862;SDS011;20158;51.436;-2.742;2023-05-07T10:49:17;3.92;;;3.03;;
33862;SDS011;20158;51.436;-2.742;2023-05-07T10:52:05;3.75;;;3.13;;
33862;SDS011;20158;51.436;-2.742;2023-05-07T10:54:40;4.45;;;3.40;;
33862;SDS011;20158;51.436;-2.742;2023-05-07T11:05:41;7.63;;;5.38;;
33862;SDS011;20158;51.436;-2.742;2023-05-07T11:17:11;9.63;;;6.05;;
33862;SDS011;20158;51.436;-2.742;2023-05-07T11:19:50;8.63;;;6.70;;
33862;SDS011;20158;51.436;-2.742;2023-05-07T11:25:19;7.65;;;6.32;;
33862;SDS011;20158;51.436;-2.742;2023-05-07T11:27:50;7.15;;;6.45;;
33862;SDS011;20158;51.436;-2.742;2023-05-07T11:30:17;8.05;;;6.53;;
33862;SDS011;20158;51.436;-2.742;2023-05-07T11:32:46;9.95;;;6.43;;
33862;SDS011;20158;51.436;-2.742;2023-05-07T11:35:15;9.15;;;7.15;;
33862;SDS011;20158;51.436;-2.742;2023-05-07T11:37:42;7.40;;;6.60;;
33862;SDS011;20158;51.436;-2.742;2023-05-07T11:40:11;7.78;;;6.82;;
33862;SDS011;20158;51.436;-2.742;2023-05-07T11:42:39;10.05;;;7.60;;
33862;SDS011;20158;51.436;-2.742;2023-05-07T11:45:07;7.68;;;6.90;;
33862;SDS011;20158;51.436;-2.742;2023-05-07T11:47:34;10.65;;;6.93;;
33862;SDS011;20158;51.436;-2.742;2023-05-07T11:50:04;6.28;;;5.55;;
33862;SDS011;20158;51.436;-2.742;2023-05-07T11:52:32;7.63;;;6.53;;
33862;SDS011;20158;51.436;-2.742;2023-05-07T11:54:59;7.28;;;6.38;;
33862;SDS011;20158;51.436;-2.742;2023-05-07T11:57:26;6.78;;;6.05;;
33862;SDS011;20158;51.436;-2.742;2023-05-07T11:59:53;6.03;;;5.35;;
33862;SDS011;20158;51.436;-2.742;2023-05-07T12:02:19;6.82;;;5.20;;
33862;SDS011;20158;51.436;-2.742;2023-05-07T12:04:45;6.53;;;5.18;;
33862;SDS011;20158;51.436;-2.742;2023-05-07T12:07:15;5.70;;;4.85;;
33862;SDS011;20158;51.436;-2.742;2023-05-07T12:09:41;6.63;;;5.68;;
33862;SDS011;20158;51.436;-2.742;2023-05-07T12:12:07;6.25;;;5.00;;
33862;SDS011;20158;51.436;-2.742;2023-05-07T12:14:37;6.30;;;5.70;;
33862;SDS011;20158;51.436;-2.742;2023-05-07T12:17:07;5.90;;;5.30;;
33862;SDS011;20158;51.436;-2.742;2023-05-07T12:19:34;6.47;;;4.70;;
33862;SDS011;20158;51.436;-2.742;2023-05-07T12:22:01;6.28;;;5.47;;
33862;SDS011;20158;51.436;-2.742;2023-05-07T12:24:28;6.40;;;5.32;;
33862;SDS011;20158;51.436;-2.742;2023-05-07T12:26:54;6.05;;;4.90;;
33862;SDS011;20158;51.436;-2.742;2023-05-07T12:29:23;4.78;;;4.28;;
33862;SDS011;20158;51.436;-2.742;2023-05-07T12:31:50;4.18;;;3.78;;
33862;SDS011;20158;51.436;-2.742;2023-05-07T12:34:16;5.28;;;4.43;;
33862;SDS011;20158;51.436;-2.742;2023-05-07T12:36:42;4.85;;;4.35;;
33862;SDS011;20158;51.436;-2.742;2023-05-07T12:39:08;4.10;;;3.50;;
33862;SDS011;20158;51.436;-2.742;2023-05-07T12:44:24;3.85;;;3.30;;
33862;SDS011;20158;51.436;-2.742;2023-05-07T12:47:03;4.28;;;3.63;;
33862;SDS011;20158;51.436;-2.742;2023-05-07T12:49:29;5.13;;;3.60;;
33862;SDS011;20158;51.436;-2.742;2023-05-07T12:51:55;5.20;;;3.55;;
33862;SDS011;20158;51.436;-2.742;2023-05-07T12:54:28;3.67;;;2.90;;
33862;SDS011;20158;51.436;-2.742;2023-05-07T12:57:02;4.28;;;3.10;;
33862;SDS011;20158;51.436;-2.742;2023-05-07T12:59:36;4.10;;;3.13;;
33862;SDS011;20158;51.436;-2.742;2023-05-07T13:02:03;4.25;;;2.97;;
33862;SDS011;20158;51.436;-2.742;2023-05-07T13:04:30;4.78;;;2.75;;
33862;SDS011;20158;51.436;-2.742;2023-05-07T13:06:56;3.65;;;2.72;;
33862;SDS011;20158;51.436;-2.742;2023-05-07T13:09:22;4.85;;;2.75;;
33862;SDS011;20158;51.436;-2.742;2023-05-07T13:11:48;5.15;;;2.78;;
33862;SDS011;20158;51.436;-2.742;2023-05-07T13:14:13;3.25;;;2.45;;
33862;SDS011;20158;51.436;-2.742;2023-05-07T13:16:40;4.70;;;2.30;;
33862;SDS011;20158;51.436;-2.742;2023-05-07T13:19:06;4.43;;;2.42;;
33862;SDS011;20158;51.436;-2.742;2023-05-07T13:21:33;3.38;;;2.13;;
33862;SDS011;20158;51.436;-2.742;2023-05-07T13:23:59;2.92;;;1.98;;
33862;SDS011;20158;51.436;-2.742;2023-05-07T13:26:25;2.67;;;1.70;;
33862;SDS011;20158;51.436;-2.742;2023-05-07T13:28:52;4.22;;;2.17;;
33862;SDS011;20158;51.436;-2.742;2023-05-07T13:31:19;4.03;;;2.30;;
33862;SDS011;20158;51.436;-2.742;2023-05-07T13:33:46;3.78;;;1.90;;
33862;SDS011;20158;51.436;-2.742;2023-05-07T13:36:12;5.65;;;2.80;;
33862;SDS011;20158;51.436;-2.742;2023-05-07T13:38:41;2.55;;;1.83;;
33862;SDS011;20158;51.436;-2.742;2023-05-07T13:41:07;4.57;;;2.13;;
33862;SDS011;20158;51.436;-2.742;2023-05-07T13:43:33;4.03;;;1.65;;
33862;SDS011;20158;51.436;-2.742;2023-05-07T13:45:59;2.45;;;1.40;;
33862;SDS011;20158;51.436;-2.742;2023-05-07T13:48:26;3.05;;;1.83;;
33862;SDS011;20158;51.436;-2.742;2023-05-07T13:50:53;5.25;;;1.95;;
33862;SDS011;20158;51.436;-2.742;2023-05-07T13:53:19;1.75;;;1.52;;
33862;SDS011;20158;51.436;-2.742;2023-05-07T13:55:45;2.78;;;1.67;;
33862;SDS011;20158;51.436;-2.742;2023-05-07T13:58:11;2.63;;;1.52;;
33862;SDS011;20158;51.436;-2.742;2023-05-07T14:00:37;3.50;;;1.70;;
33862;SDS011;20158;51.436;-2.742;2023-05-07T14:03:04;2.47;;;1.40;;
33862;SDS011;20158;51.436;-2.742;2023-05-07T14:05:30;4.35;;;1.92;;
33862;SDS011;20158;51.436;-2.742;2023-05-07T14:07:57;2.25;;;1.75;;
33862;SDS011;20158;51.436;-2.742;2023-05-07T14:10:23;5.25;;;2.30;;
33862;SDS011;20158;51.436;-2.742;2023-05-07T14:12:52;3.75;;;1.90;;
33862;SDS011;20158;51.436;-2.742;2023-05-07T14:15:18;2.78;;;1.38;;
33862;SDS011;20158;51.436;-2.742;2023-05-07T14:17:45;2.25;;;1.40;;
33862;SDS011;20158;51.436;-2.742;2023-05-07T14:20:15;3.05;;;2.03;;
33862;SDS011;20158;51.436;-2.742;2023-05-07T14:22:42;1.83;;;1.40;;
33862;SDS011;20158;51.436;-2.742;2023-05-07T14:25:10;4.70;;;1.73;;
33862;SDS011;20158;51.436;-2.742;2023-05-07T14:27:37;2.78;;;1.88;;
33862;SDS011;20158;51.436;-2.742;2023-05-07T14:30:05;2.92;;;1.33;;
33862;SDS011;20158;51.436;-2.742;2023-05-07T14:32:32;3.60;;;2.05;;
33862;SDS011;20158;51.436;-2.742;2023-05-07T14:34:59;4.53;;;1.40;;
33862;SDS011;20158;51.436;-2.742;2023-05-07T14:37:25;3.70;;;1.60;;
33862;SDS011;20158;51.436;-2.742;2023-05-07T14:39:51;4.57;;;1.90;;
33862;SDS011;20158;51.436;-2.742;2023-05-07T14:42:20;6.97;;;2.28;;
33862;SDS011;20158;51.436;-2.742;2023-05-07T14:44:46;3.80;;;1.63;;
33862;SDS011;20158;51.436;-2.742;2023-05-07T14:47:22;4.25;;;2.05;;
33862;SDS011;20158;51.436;-2.742;2023-05-07T14:49:48;3.67;;;1.35;;
33862;SDS011;20158;51.436;-2.742;2023-05-07T14:52:19;1.80;;;1.23;;
33862;SDS011;20158;51.436;-2.742;2023-05-07T14:54:45;2.75;;;1.50;;
33862;SDS011;20158;51.436;-2.742;2023-05-07T14:57:11;3.05;;;1.65;;
33862;SDS011;20158;51.436;-2.742;2023-05-07T14:59:40;2.35;;;1.13;;